Time;durP1;ratioP1;P1;durP2;ratioP2;P2;SDS_P1;SDS_P2;PMS_P1;PMS_P2;Temp;Humidity;BMP_temperature;BMP_pressure;BME280_temperature;BME280_humidity;BME280_pressure;Samples;Min_cycle;Max_cycle;Signal;HPM_P1;HPM_P2
2022/03/26 00:00:11;;;;;;;;;;;15.20;28.10;;;;;;4996008;28;19951;-60
2022/03/26 00:02:37;;;;;;;;;;;15.30;28.10;;;;;;4996327;28;19913;-61
2022/03/26 00:05:03;;;;;;;;;;;15.30;28.10;;;;;;4995992;28;19944;-60
2022/03/26 00:07:28;;;;;;;;;;;15.30;28.10;;;;;;4996208;28;20377;-61
2022/03/26 00:09:54;;;;;;;;;;;15.30;28.10;;;;;;4995955;28;19909;-61
2022/03/26 00:12:19;;;;;;;;;;;15.30;28.20;;;;;;4996132;28;20377;-60
2022/03/26 00:14:45;;;;;;;;;;;15.30;28.30;;;;;;4995826;28;20009;-60
2022/03/26 00:17:11;;;;;;;;;;;15.20;28.40;;;;;;4996006;28;20012;-60
2022/03/26 00:19:36;;;;;;;;;;;15.20;28.30;;;;;;4995679;28;19922;-61
2022/03/26 00:22:02;;;;;;;;;;;15.10;28.50;;;;;;4995603;28;20265;-61
2022/03/26 00:24:28;;;;;;;;;;;15.10;28.70;;;;;;4995659;28;20349;-60
2022/03/26 00:26:53;;;;;;;;;;;15.20;28.50;;;;;;4995673;28;20000;-60
2022/03/26 00:29:19;;;;;;;;;;;15.20;28.50;;;;;;4995550;28;19910;-61
2022/03/26 00:31:45;;;;;;;;;;;15.20;28.60;;;;;;4995240;28;20297;-61
2022/03/26 00:34:11;;;;;;;;;;;15.20;28.80;;;;;;4995260;28;20359;-60
2022/03/26 00:36:36;;;;;;;;;;;15.10;28.80;;;;;;4995645;28;19945;-60
2022/03/26 00:39:03;;;;;;;;;;;15.20;28.80;;;;;;4995327;28;19910;-61
2022/03/26 00:41:28;;;;;;;;;;;15.30;28.80;;;;;;4995222;28;19960;-61
2022/03/26 00:43:55;;;;;;;;;;;15.30;28.80;;;;;;4998807;28;19910;-61
2022/03/26 00:46:21;;;;;;;;;;;15.20;28.80;;;;;;4999317;28;19921;-60
2022/03/26 00:48:47;;;;;;;;;;;15.20;28.70;;;;;;4995350;28;19918;-60
2022/03/26 00:51:15;;;;;;;;;;;15.20;28.70;;;;;;4995401;28;19910;-61
2022/03/26 00:53:44;;;;;;;;;;;15.10;28.90;;;;;;4995084;28;19918;-60
2022/03/26 00:56:09;;;;;;;;;;;15.20;29.00;;;;;;4994492;28;19949;-61
2022/03/26 00:58:35;;;;;;;;;;;15.20;29.10;;;;;;4995483;28;19980;-60
2022/03/26 01:01:01;;;;;;;;;;;15.10;29.20;;;;;;4994989;28;19910;-60
2022/03/26 01:03:26;;;;;;;;;;;15.10;29.10;;;;;;4995118;28;19914;-62
2022/03/26 01:05:52;;;;;;;;;;;15.10;29.20;;;;;;4995130;28;20266;-60
2022/03/26 01:08:18;;;;;;;;;;;15.10;29.20;;;;;;4995048;28;19916;-61
2022/03/26 01:10:44;;;;;;;;;;;15.00;29.40;;;;;;4996218;28;19910;-62
2022/03/26 01:13:10;;;;;;;;;;;14.90;29.40;;;;;;4998067;28;19922;-63
2022/03/26 01:15:36;;;;;;;;;;;15.00;29.50;;;;;;4998591;28;19910;-65
2022/03/26 01:18:01;;;;;;;;;;;14.90;29.70;;;;;;4998120;28;19917;-62
2022/03/26 01:20:27;;;;;;;;;;;14.80;29.90;;;;;;4999299;28;19916;-61
2022/03/26 01:22:52;;;;;;;;;;;14.80;30.00;;;;;;4997990;28;19910;-65
2022/03/26 01:25:18;;;;;;;;;;;14.80;30.00;;;;;;4994725;28;19957;-64
2022/03/26 01:27:44;;;;;;;;;;;14.70;30.00;;;;;;4994752;28;20330;-64
2022/03/26 01:30:09;;;;;;;;;;;14.70;30.00;;;;;;4994213;28;19917;-61
2022/03/26 01:32:36;;;;;;;;;;;14.80;30.00;;;;;;4994593;28;19918;-60
2022/03/26 01:35:01;;;;;;;;;;;14.80;30.00;;;;;;4994691;28;20298;-61
2022/03/26 01:37:27;;;;;;;;;;;14.70;30.10;;;;;;4994409;28;19917;-60
2022/03/26 01:39:52;;;;;;;;;;;14.70;30.20;;;;;;4994557;28;19965;-60
2022/03/26 01:42:18;;;;;;;;;;;14.70;30.20;;;;;;4994596;28;19914;-60
2022/03/26 01:44:44;;;;;;;;;;;14.70;30.20;;;;;;4994612;28;19910;-60
2022/03/26 01:47:10;;;;;;;;;;;14.70;30.10;;;;;;4994542;28;19992;-61
2022/03/26 01:49:36;;;;;;;;;;;14.70;30.20;;;;;;4994562;28;20401;-61
2022/03/26 01:52:03;;;;;;;;;;;14.70;30.40;;;;;;4994298;28;19969;-61
2022/03/26 01:54:28;;;;;;;;;;;14.70;30.30;;;;;;4994319;28;19910;-60
2022/03/26 01:56:55;;;;;;;;;;;14.70;30.40;;;;;;4994493;28;19917;-61
2022/03/26 01:59:21;;;;;;;;;;;14.60;30.50;;;;;;4994389;28;19910;-60
2022/03/26 02:01:46;;;;;;;;;;;14.60;30.60;;;;;;4994158;28;19913;-61
2022/03/26 02:04:12;;;;;;;;;;;14.60;30.70;;;;;;4994127;28;20330;-60
2022/03/26 02:06:39;;;;;;;;;;;14.60;30.50;;;;;;4994322;28;19917;-60
2022/03/26 02:09:08;;;;;;;;;;;14.60;31.00;;;;;;4997627;28;19957;-60
2022/03/26 02:11:35;;;;;;;;;;;14.60;30.70;;;;;;4997802;28;19910;-60
2022/03/26 02:14:02;;;;;;;;;;;14.60;30.80;;;;;;4998173;28;19909;-61
2022/03/26 02:16:29;;;;;;;;;;;14.60;30.70;;;;;;4997867;28;19914;-62
2022/03/26 02:18:54;;;;;;;;;;;14.60;30.80;;;;;;4997795;28;19910;-60
2022/03/26 02:21:20;;;;;;;;;;;14.50;30.90;;;;;;4998003;28;19978;-61
2022/03/26 02:23:47;;;;;;;;;;;14.50;30.90;;;;;;4997691;28;19997;-60
2022/03/26 02:26:16;;;;;;;;;;;14.50;30.90;;;;;;4998005;28;19910;-61
2022/03/26 02:28:44;;;;;;;;;;;14.60;30.90;;;;;;4997692;28;19910;-61
2022/03/26 02:31:10;;;;;;;;;;;14.50;31.00;;;;;;4997379;28;19929;-60
2022/03/26 02:33:36;;;;;;;;;;;14.50;30.90;;;;;;4997741;28;19929;-60
2022/03/26 02:36:02;;;;;;;;;;;14.40;31.00;;;;;;4997629;28;20274;-61
2022/03/26 02:38:27;;;;;;;;;;;14.40;31.20;;;;;;4997554;28;20245;-60
2022/03/26 02:40:53;;;;;;;;;;;14.40;31.10;;;;;;4997528;28;19913;-61
2022/03/26 02:43:19;;;;;;;;;;;14.40;31.20;;;;;;4997493;28;19916;-61
2022/03/26 02:45:45;;;;;;;;;;;14.40;31.10;;;;;;4997610;28;20384;-60
2022/03/26 02:48:12;;;;;;;;;;;14.60;30.80;;;;;;4997286;28;19918;-60
2022/03/26 02:50:42;;;;;;;;;;;14.50;30.90;;;;;;4997463;28;20318;-60
2022/03/26 02:53:07;;;;;;;;;;;14.50;31.00;;;;;;4997247;28;19989;-60
2022/03/26 02:55:34;;;;;;;;;;;14.50;30.90;;;;;;4997507;28;19910;-61
2022/03/26 02:57:59;;;;;;;;;;;14.60;30.70;;;;;;4997438;28;19910;-61
2022/03/26 03:00:25;;;;;;;;;;;14.50;30.60;;;;;;4997551;28;20281;-61
2022/03/26 03:02:51;;;;;;;;;;;14.60;30.80;;;;;;4997489;28;20302;-61
2022/03/26 03:05:16;;;;;;;;;;;14.60;30.80;;;;;;4997235;28;19968;-61
2022/03/26 03:07:42;;;;;;;;;;;14.50;31.10;;;;;;4996982;28;19910;-60
2022/03/26 03:10:08;;;;;;;;;;;14.60;30.60;;;;;;4997182;28;19992;-60
2022/03/26 03:12:33;;;;;;;;;;;14.60;30.70;;;;;;4996667;28;19940;-60
2022/03/26 03:14:59;;;;;;;;;;;14.70;30.80;;;;;;4997341;28;20000;-62
2022/03/26 03:17:25;;;;;;;;;;;14.60;30.60;;;;;;4997133;28;20004;-60
2022/03/26 03:19:50;;;;;;;;;;;14.70;30.50;;;;;;4996183;28;19917;-60
2022/03/26 03:22:16;;;;;;;;;;;14.60;30.40;;;;;;4997020;28;20266;-60
2022/03/26 03:24:42;;;;;;;;;;;14.70;30.40;;;;;;4997320;28;20437;-60
2022/03/26 03:27:08;;;;;;;;;;;14.70;30.50;;;;;;4998245;28;20258;-60
2022/03/26 03:29:33;;;;;;;;;;;14.60;30.60;;;;;;4999672;28;19910;-61
2022/03/26 03:31:59;;;;;;;;;;;14.70;30.60;;;;;;4996824;28;20280;-60
2022/03/26 03:34:25;;;;;;;;;;;14.70;30.10;;;;;;4996656;28;20333;-61
2022/03/26 03:36:50;;;;;;;;;;;14.80;30.10;;;;;;4996751;28;19909;-62
2022/03/26 03:39:16;;;;;;;;;;;14.70;30.20;;;;;;4996912;28;19916;-61
2022/03/26 03:41:41;;;;;;;;;;;14.70;30.50;;;;;;4996811;28;19917;-60
2022/03/26 03:44:07;;;;;;;;;;;14.80;30.30;;;;;;4996610;28;19917;-61
2022/03/26 03:46:36;;;;;;;;;;;14.70;30.30;;;;;;4996558;28;19909;-60
2022/03/26 03:49:02;;;;;;;;;;;14.70;30.10;;;;;;4996569;28;19910;-61
2022/03/26 03:51:27;;;;;;;;;;;14.80;30.00;;;;;;4996623;28;19910;-60
2022/03/26 03:53:53;;;;;;;;;;;14.70;30.10;;;;;;4996113;28;19941;-60
2022/03/26 03:56:19;;;;;;;;;;;14.70;30.10;;;;;;4996383;28;19992;-61
2022/03/26 03:58:44;;;;;;;;;;;14.80;30.10;;;;;;4996097;28;19937;-60
2022/03/26 04:01:10;;;;;;;;;;;14.80;30.10;;;;;;4996105;28;19910;-60
2022/03/26 04:03:35;;;;;;;;;;;14.80;30.20;;;;;;4995968;28;19909;-61
2022/03/26 04:06:01;;;;;;;;;;;14.70;30.20;;;;;;4995972;28;19980;-61
2022/03/26 04:08:28;;;;;;;;;;;14.70;30.10;;;;;;4995888;28;19910;-60
2022/03/26 04:10:53;;;;;;;;;;;14.70;30.30;;;;;;4995716;28;19925;-60
2022/03/26 04:13:20;;;;;;;;;;;14.70;30.40;;;;;;4995778;28;19917;-60
2022/03/26 04:15:46;;;;;;;;;;;14.60;30.40;;;;;;4995867;28;19964;-63
2022/03/26 04:18:12;;;;;;;;;;;14.70;30.20;;;;;;4995655;28;19910;-60
2022/03/26 04:20:37;;;;;;;;;;;14.70;30.30;;;;;;4995652;28;19910;-61
2022/03/26 04:23:03;;;;;;;;;;;14.70;30.40;;;;;;4995075;28;20005;-60
2022/03/26 04:25:29;;;;;;;;;;;14.60;30.20;;;;;;4995402;28;20012;-60
2022/03/26 04:27:54;;;;;;;;;;;14.60;30.30;;;;;;4995309;28;19957;-60
2022/03/26 04:30:20;;;;;;;;;;;14.60;30.20;;;;;;4995268;28;19910;-60
2022/03/26 04:32:49;;;;;;;;;;;14.60;30.10;;;;;;4995011;28;19918;-61
2022/03/26 04:35:14;;;;;;;;;;;14.60;30.40;;;;;;4995308;28;19909;-60
2022/03/26 04:37:41;;;;;;;;;;;14.60;30.40;;;;;;4995594;28;19967;-60
2022/03/26 04:40:08;;;;;;;;;;;14.40;30.60;;;;;;4995136;28;20369;-61
2022/03/26 04:42:34;;;;;;;;;;;14.40;30.60;;;;;;4995301;28;19916;-62
2022/03/26 04:44:59;;;;;;;;;;;14.40;30.70;;;;;;4995259;28;19909;-60
2022/03/26 04:47:25;;;;;;;;;;;14.40;30.90;;;;;;4994892;28;20274;-60
2022/03/26 04:49:51;;;;;;;;;;;14.40;30.70;;;;;;4994468;28;20012;-60
2022/03/26 04:52:17;;;;;;;;;;;14.40;30.60;;;;;;4994933;28;19928;-60
2022/03/26 04:54:43;;;;;;;;;;;14.40;30.80;;;;;;4995074;28;19996;-60
2022/03/26 04:57:09;;;;;;;;;;;14.50;30.70;;;;;;4995206;28;20345;-61
2022/03/26 04:59:34;;;;;;;;;;;14.50;30.60;;;;;;4994938;28;19910;-60
2022/03/26 05:02:00;;;;;;;;;;;14.50;30.70;;;;;;4995202;28;19917;-61
2022/03/26 05:04:25;;;;;;;;;;;14.50;30.70;;;;;;4994889;28;19910;-60
2022/03/26 05:06:51;;;;;;;;;;;14.50;30.50;;;;;;4995285;28;19914;-60
2022/03/26 05:09:17;;;;;;;;;;;14.50;30.50;;;;;;4995138;28;19929;-61
2022/03/26 05:11:42;;;;;;;;;;;14.40;30.80;;;;;;4994789;28;19910;-60
2022/03/26 05:14:08;;;;;;;;;;;14.50;30.50;;;;;;4995097;28;19917;-60
2022/03/26 05:16:33;;;;;;;;;;;14.50;30.70;;;;;;4994886;28;19917;-61
2022/03/26 05:19:03;;;;;;;;;;;14.50;30.70;;;;;;4994752;28;19910;-60
2022/03/26 05:21:28;;;;;;;;;;;14.50;30.60;;;;;;4994632;28;19910;-61
2022/03/26 05:23:54;;;;;;;;;;;14.50;30.60;;;;;;4994824;28;19910;-60
2022/03/26 05:26:22;;;;;;;;;;;14.50;30.60;;;;;;4994895;28;19917;-60
2022/03/26 05:28:48;;;;;;;;;;;14.60;30.10;;;;;;4994662;28;20280;-61
2022/03/26 05:31:14;;;;;;;;;;;14.70;30.00;;;;;;4994581;28;20037;-63
2022/03/26 05:33:40;;;;;;;;;;;14.80;33.90;;;;;;4994951;28;20008;-66
2022/03/26 05:36:06;;;;;;;;;;;14.90;31.60;;;;;;4994174;28;19945;-64
2022/03/26 05:38:32;;;;;;;;;;;15.10;31.60;;;;;;4994783;28;19992;-63
2022/03/26 05:40:58;;;;;;;;;;;15.10;30.10;;;;;;4994814;28;19914;-64
2022/03/26 05:43:24;;;;;;;;;;;15.20;29.90;;;;;;4994412;28;20332;-60
2022/03/26 05:45:51;;;;;;;;;;;15.20;29.60;;;;;;4994407;28;19964;-64
2022/03/26 05:48:17;;;;;;;;;;;15.20;29.70;;;;;;4994564;28;19917;-62
2022/03/26 05:50:44;;;;;;;;;;;15.20;30.30;;;;;;4994827;28;19913;-62
2022/03/26 05:53:10;;;;;;;;;;;15.20;30.00;;;;;;4995616;28;19918;-61
2022/03/26 05:55:35;;;;;;;;;;;15.20;30.00;;;;;;4997521;28;20020;-61
2022/03/26 05:58:02;;;;;;;;;;;15.20;29.80;;;;;;4997709;28;20005;-61
2022/03/26 06:00:27;;;;;;;;;;;15.30;29.70;;;;;;4996735;28;20272;-60
2022/03/26 06:02:53;;;;;;;;;;;15.20;29.80;;;;;;4998858;28;20000;-61
2022/03/26 06:05:19;;;;;;;;;;;15.30;29.70;;;;;;5001277;28;19910;-60
2022/03/26 06:07:44;;;;;;;;;;;15.20;29.50;;;;;;4998147;28;19982;-61
2022/03/26 06:10:10;;;;;;;;;;;15.10;29.50;;;;;;5000436;28;19910;-60
2022/03/26 06:12:35;;;;;;;;;;;15.00;29.90;;;;;;5002229;28;19917;-60
2022/03/26 06:15:03;;;;;;;;;;;15.10;29.90;;;;;;4995831;28;20301;-60
2022/03/26 06:17:29;;;;;;;;;;;15.10;29.70;;;;;;4996881;28;19910;-59
2022/03/26 06:19:54;;;;;;;;;;;15.20;29.50;;;;;;4997955;28;20354;-59
2022/03/26 06:22:20;;;;;;;;;;;15.20;29.70;;;;;;4995185;28;19910;-61
2022/03/26 06:24:46;;;;;;;;;;;15.20;29.70;;;;;;4994654;28;20328;-59
2022/03/26 06:27:11;;;;;;;;;;;15.20;29.70;;;;;;4996187;28;20328;-59
2022/03/26 06:29:37;;;;;;;;;;;15.30;29.50;;;;;;4999371;28;19936;-59
2022/03/26 06:32:03;;;;;;;;;;;15.50;29.20;;;;;;4996785;28;20313;-59
2022/03/26 06:34:29;;;;;;;;;;;15.70;28.90;;;;;;4997669;28;19918;-61
2022/03/26 06:36:55;;;;;;;;;;;15.80;28.70;;;;;;4998052;28;19913;-60
2022/03/26 06:39:20;;;;;;;;;;;15.90;28.60;;;;;;4999492;28;19910;-60
2022/03/26 06:41:46;;;;;;;;;;;16.10;28.50;;;;;;5002232;28;19932;-60
2022/03/26 06:44:12;;;;;;;;;;;16.30;28.30;;;;;;5001311;28;19910;-62
2022/03/26 06:46:38;;;;;;;;;;;16.40;28.20;;;;;;4997853;28;20305;-60
2022/03/26 06:49:05;;;;;;;;;;;16.40;28.60;;;;;;4999262;28;19917;-63
2022/03/26 06:51:31;;;;;;;;;;;16.60;28.30;;;;;;5000159;28;19956;-61
2022/03/26 06:53:58;;;;;;;;;;;16.80;27.80;;;;;;4998290;28;19976;-61
2022/03/26 06:56:23;;;;;;;;;;;16.70;27.80;;;;;;5003120;28;20001;-61
2022/03/26 06:58:49;;;;;;;;;;;16.80;27.50;;;;;;5004030;28;19953;-61
2022/03/26 07:01:14;;;;;;;;;;;16.90;27.20;;;;;;5001151;28;19910;-61
2022/03/26 07:03:40;;;;;;;;;;;17.00;27.30;;;;;;5002824;28;19910;-63
2022/03/26 07:06:05;;;;;;;;;;;17.10;27.10;;;;;;5003092;28;20282;-60
2022/03/26 07:08:31;;;;;;;;;;;17.20;27.00;;;;;;5002664;28;19937;-61
2022/03/26 07:10:57;;;;;;;;;;;17.30;27.20;;;;;;5000708;28;20381;-62
2022/03/26 07:13:23;;;;;;;;;;;17.30;27.10;;;;;;5002660;28;19945;-61
2022/03/26 07:15:48;;;;;;;;;;;17.50;26.90;;;;;;5001991;28;19964;-61
2022/03/26 07:18:15;;;;;;;;;;;17.50;26.80;;;;;;5003448;28;20354;-61
2022/03/26 07:20:40;;;;;;;;;;;17.60;26.60;;;;;;5002314;28;19948;-60
2022/03/26 07:23:06;;;;;;;;;;;17.80;26.70;;;;;;5000579;28;20346;-60
2022/03/26 07:25:33;;;;;;;;;;;17.90;26.30;;;;;;4999607;28;20286;-60
2022/03/26 07:27:58;;;;;;;;;;;18.00;26.30;;;;;;4999415;28;20000;-61
2022/03/26 07:30:24;;;;;;;;;;;18.10;25.70;;;;;;4999065;28;19945;-61
2022/03/26 07:32:50;;;;;;;;;;;18.20;26.30;;;;;;5000021;28;19918;-61
2022/03/26 07:35:16;;;;;;;;;;;18.30;25.90;;;;;;4999444;28;19917;-61
2022/03/26 07:37:43;;;;;;;;;;;18.40;25.30;;;;;;4999777;28;19914;-61
2022/03/26 07:40:09;;;;;;;;;;;18.60;25.50;;;;;;5007512;28;19914;-61
2022/03/26 07:42:35;;;;;;;;;;;18.70;25.50;;;;;;5007053;28;19910;-61
2022/03/26 07:45:01;;;;;;;;;;;18.80;24.30;;;;;;5003348;28;19910;-62
2022/03/26 07:47:27;;;;;;;;;;;18.90;24.00;;;;;;4999139;28;20396;-61
2022/03/26 07:49:52;;;;;;;;;;;18.90;24.30;;;;;;5002009;28;19932;-61
2022/03/26 07:52:18;;;;;;;;;;;19.00;24.10;;;;;;5001050;28;19953;-61
2022/03/26 07:54:44;;;;;;;;;;;19.00;23.80;;;;;;5001729;28;19920;-61
2022/03/26 07:57:09;;;;;;;;;;;19.10;23.70;;;;;;4999899;28;20008;-61
2022/03/26 07:59:35;;;;;;;;;;;19.20;23.30;;;;;;5000018;28;19917;-62
2022/03/26 08:02:00;;;;;;;;;;;19.30;23.90;;;;;;4999588;28;20373;-62
2022/03/26 08:04:26;;;;;;;;;;;19.40;23.20;;;;;;4997894;28;19909;-61
2022/03/26 08:06:51;;;;;;;;;;;19.50;23.10;;;;;;4999698;28;19980;-61
2022/03/26 08:09:17;;;;;;;;;;;19.50;23.20;;;;;;4998257;28;19913;-61
2022/03/26 08:11:44;;;;;;;;;;;19.50;22.80;;;;;;4998540;28;19917;-62
2022/03/26 08:14:09;;;;;;;;;;;19.50;23.00;;;;;;4998494;28;20005;-62
2022/03/26 08:16:35;;;;;;;;;;;19.60;22.80;;;;;;4996182;28;19957;-61
2022/03/26 08:19:00;;;;;;;;;;;19.70;22.60;;;;;;4996172;28;19918;-62
2022/03/26 08:21:26;;;;;;;;;;;19.80;22.30;;;;;;4995843;28;19917;-60
2022/03/26 08:23:53;;;;;;;;;;;19.90;22.20;;;;;;4995889;28;19916;-60
2022/03/26 08:26:29;;;;;;;;;;;19.90;22.70;;;;;;4996304;28;19937;-60
2022/03/26 08:28:56;;;;;;;;;;;20.00;22.60;;;;;;4995732;28;19910;-60
2022/03/26 08:31:23;;;;;;;;;;;20.10;22.80;;;;;;4995350;28;19944;-59
2022/03/26 08:33:48;;;;;;;;;;;20.20;22.30;;;;;;4995557;28;20362;-60
2022/03/26 08:36:15;;;;;;;;;;;20.20;22.20;;;;;;4995519;28;19917;-63
2022/03/26 08:38:41;;;;;;;;;;;20.20;22.20;;;;;;4995433;28;19916;-62
2022/03/26 08:41:06;;;;;;;;;;;20.30;22.00;;;;;;4995197;28;19910;-60
2022/03/26 08:43:32;;;;;;;;;;;20.40;22.10;;;;;;4995314;28;19967;-62
2022/03/26 08:45:58;;;;;;;;;;;20.30;21.30;;;;;;4994886;28;19976;-62
2022/03/26 08:48:23;;;;;;;;;;;20.20;22.20;;;;;;4994702;28;19910;-62
2022/03/26 08:50:49;;;;;;;;;;;20.40;21.80;;;;;;4994918;28;19910;-62
2022/03/26 08:53:15;;;;;;;;;;;20.40;21.90;;;;;;4995075;28;19918;-62
2022/03/26 08:55:40;;;;;;;;;;;20.40;21.80;;;;;;4994810;28;20008;-63
2022/03/26 08:58:09;;;;;;;;;;;20.30;22.00;;;;;;5004872;28;19978;-63
2022/03/26 09:00:35;;;;;;;;;;;20.50;23.10;;;;;;4998572;28;19946;-65
2022/03/26 09:03:01;;;;;;;;;;;20.60;20.00;;;;;;4994525;28;19917;-63
2022/03/26 09:05:27;;;;;;;;;;;20.70;20.50;;;;;;4993280;28;19921;-63
2022/03/26 09:07:53;;;;;;;;;;;20.90;20.50;;;;;;4994307;28;20274;-62
2022/03/26 09:10:19;;;;;;;;;;;20.90;20.90;;;;;;4994388;28;19910;-62
2022/03/26 09:12:46;;;;;;;;;;;21.00;20.50;;;;;;4994238;28;19945;-63
2022/03/26 09:15:12;;;;;;;;;;;21.10;20.10;;;;;;4994262;28;19910;-60
2022/03/26 09:17:37;;;;;;;;;;;21.10;19.10;;;;;;4993712;28;19914;-62
2022/03/26 09:20:04;;;;;;;;;;;21.00;18.90;;;;;;4994536;28;20366;-62
2022/03/26 09:22:30;;;;;;;;;;;21.10;19.00;;;;;;4994558;28;20376;-62
2022/03/26 09:24:55;;;;;;;;;;;21.20;19.50;;;;;;4994227;28;19910;-61
2022/03/26 09:27:21;;;;;;;;;;;21.30;19.30;;;;;;4994089;28;19945;-64
2022/03/26 09:29:46;;;;;;;;;;;21.30;19.70;;;;;;4993360;28;19936;-66
2022/03/26 09:32:12;;;;;;;;;;;21.30;19.40;;;;;;4994267;28;19969;-62
2022/03/26 09:34:38;;;;;;;;;;;21.40;19.80;;;;;;4994415;28;19914;-64
2022/03/26 09:37:03;;;;;;;;;;;21.40;19.00;;;;;;4994565;28;19910;-64
2022/03/26 09:39:29;;;;;;;;;;;21.50;18.90;;;;;;4994142;28;19910;-64
2022/03/26 09:41:55;;;;;;;;;;;21.50;19.60;;;;;;4994221;28;19917;-60
2022/03/26 09:44:22;;;;;;;;;;;21.50;19.70;;;;;;4993977;28;19921;-62
2022/03/26 09:46:48;;;;;;;;;;;21.50;19.00;;;;;;4994326;28;19920;-63
2022/03/26 09:49:13;;;;;;;;;;;21.60;18.80;;;;;;4994274;28;19914;-61
2022/03/26 09:51:39;;;;;;;;;;;21.40;18.50;;;;;;4994788;28;20297;-59
2022/03/26 09:54:05;;;;;;;;;;;21.50;20.10;;;;;;4994619;28;19921;-60
2022/03/26 09:56:31;;;;;;;;;;;21.50;19.20;;;;;;4994303;28;19917;-61
2022/03/26 09:58:56;;;;;;;;;;;21.50;20.20;;;;;;4993846;28;19913;-62
2022/03/26 10:01:23;;;;;;;;;;;21.40;21.10;;;;;;4994121;28;19917;-60
2022/03/26 10:04:07;;;;;;;;;;;21.20;22.20;;;;;;4996366;28;20340;-60
2022/03/26 10:06:33;;;;;;;;;;;21.00;22.80;;;;;;4996614;28;19945;-61
2022/03/26 10:08:58;;;;;;;;;;;21.00;22.70;;;;;;4996498;28;19964;-61
2022/03/26 10:11:24;;;;;;;;;;;20.90;22.80;;;;;;4996529;28;19910;-61
2022/03/26 10:13:52;;;;;;;;;;;20.60;22.50;;;;;;4996603;28;20371;-61
2022/03/26 10:16:18;;;;;;;;;;;20.50;23.40;;;;;;4991334;28;19968;-61
2022/03/26 10:18:45;;;;;;;;;;;20.40;23.20;;;;;;4997198;28;19914;-61
2022/03/26 10:21:14;;;;;;;;;;;20.50;23.60;;;;;;4994551;28;19910;-61
2022/03/26 10:23:47;;;;;;;;;;;20.70;23.70;;;;;;4995181;28;20012;-59
2022/03/26 10:26:13;;;;;;;;;;;21.00;24.10;;;;;;4994269;28;19909;-61
2022/03/26 10:28:42;;;;;;;;;;;21.20;23.30;;;;;;4994972;28;19909;-61
2022/03/26 10:34:08;;;;;;;;;;;21.30;22.70;;;;;;4994260;28;20329;-60
2022/03/26 10:36:35;;;;;;;;;;;21.40;22.70;;;;;;4997567;28;19952;-59
2022/03/26 10:39:00;;;;;;;;;;;21.50;22.80;;;;;;4996540;28;19914;-59
2022/03/26 10:41:26;;;;;;;;;;;21.60;21.60;;;;;;4997280;28;20420;-59
2022/03/26 10:44:05;;;;;;;;;;;21.60;22.10;;;;;;4999507;28;20277;-61
2022/03/26 10:46:39;;;;;;;;;;;21.70;21.90;;;;;;5001624;28;20358;-59
2022/03/26 10:49:05;;;;;;;;;;;21.70;20.90;;;;;;5002081;28;19913;-66
2022/03/26 10:51:35;;;;;;;;;;;21.60;20.60;;;;;;5000502;28;20005;-61
2022/03/26 10:54:06;;;;;;;;;;;21.30;21.20;;;;;;4999697;28;20322;-61
2022/03/26 10:56:33;;;;;;;;;;;20.90;21.80;;;;;;5002217;28;20242;-62
2022/03/26 10:58:59;;;;;;;;;;;21.10;22.20;;;;;;4997787;28;19910;-60
2022/03/26 11:01:25;;;;;;;;;;;21.20;21.40;;;;;;4997902;28;19950;-62
2022/03/26 11:03:50;;;;;;;;;;;21.20;21.70;;;;;;4997384;28;19965;-62
2022/03/26 11:06:17;;;;;;;;;;;21.50;21.60;;;;;;4997635;28;19910;-61
2022/03/26 11:08:46;;;;;;;;;;;21.70;21.50;;;;;;4997067;28;19916;-67
2022/03/26 11:11:12;;;;;;;;;;;21.90;20.60;;;;;;4997448;28;20326;-59
2022/03/26 11:13:48;;;;;;;;;;;21.80;20.80;;;;;;4997257;28;19968;-62
2022/03/26 11:16:34;;;;;;;;;;;21.90;21.30;;;;;;4997066;28;19921;-61
2022/03/26 11:19:15;;;;;;;;;;;21.60;19.90;;;;;;4997284;28;19909;-67
2022/03/26 11:21:49;;;;;;;;;;;21.50;20.40;;;;;;4997092;28;20317;-65
2022/03/26 11:24:41;;;;;;;;;;;21.50;21.20;;;;;;4996931;28;19909;-64
2022/03/26 11:27:10;;;;;;;;;;;21.60;21.60;;;;;;5003631;28;20383;-61
2022/03/26 11:29:35;;;;;;;;;;;21.60;19.90;;;;;;4996971;28;19965;-65
2022/03/26 11:32:17;;;;;;;;;;;21.80;20.60;;;;;;4996528;28;19925;-66
2022/03/26 11:34:42;;;;;;;;;;;21.90;20.40;;;;;;4997063;28;19913;-61
2022/03/26 11:37:09;;;;;;;;;;;22.00;20.30;;;;;;4996968;28;19956;-61
2022/03/26 11:39:51;;;;;;;;;;;21.90;19.80;;;;;;4996617;28;19910;-63
2022/03/26 11:42:24;;;;;;;;;;;21.90;20.30;;;;;;4996459;28;19920;-62
2022/03/26 11:50:42;;;;;;;;;;;22.00;21.20;;;;;;4996487;28;20377;-59
2022/03/26 11:53:13;;;;;;;;;;;21.60;21.10;;;;;;4996236;28;20281;-60
2022/03/26 11:55:41;;;;;;;;;;;21.70;21.90;;;;;;4996464;28;19910;-62
2022/03/26 11:58:13;;;;;;;;;;;21.90;21.30;;;;;;4996192;28;19920;-62
2022/03/26 12:01:12;;;;;;;;;;;22.10;21.40;;;;;;4996145;28;20385;-62
2022/03/26 12:03:42;;;;;;;;;;;22.10;20.70;;;;;;5005880;28;20008;-65
2022/03/26 12:08:55;;;;;;;;;;;22.20;21.10;;;;;;4996517;28;19937;-60
2022/03/26 12:11:24;;;;;;;;;;;22.20;21.30;;;;;;4996752;28;19910;-61
2022/03/26 12:13:59;;;;;;;;;;;22.00;20.60;;;;;;4995667;28;19969;-59
2022/03/26 12:17:01;;;;;;;;;;;21.30;20.90;;;;;;4995676;28;20416;-60
2022/03/26 12:19:45;;;;;;;;;;;21.00;22.10;;;;;;5013250;28;20004;-60
2022/03/26 12:22:26;;;;;;;;;;;21.00;22.60;;;;;;4997221;28;19921;-62
2022/03/26 12:24:56;;;;;;;;;;;20.80;22.60;;;;;;4994176;28;19992;-60
2022/03/26 12:27:22;;;;;;;;;;;20.80;22.50;;;;;;4995142;28;20348;-60
2022/03/26 12:29:49;;;;;;;;;;;20.60;22.60;;;;;;4995975;28;19909;-59
2022/03/26 12:32:17;;;;;;;;;;;20.90;23.60;;;;;;4995580;28;20017;-60
2022/03/26 12:34:53;;;;;;;;;;;21.10;22.70;;;;;;4990528;28;19910;-59
2022/03/26 12:37:19;;;;;;;;;;;21.00;23.00;;;;;;4996096;28;20060;-63
2022/03/26 12:39:45;;;;;;;;;;;20.80;22.80;;;;;;4997275;28;20326;-60
2022/03/26 12:42:11;;;;;;;;;;;21.10;23.80;;;;;;5012232;28;19910;-60
2022/03/26 12:44:36;;;;;;;;;;;21.00;22.30;;;;;;5011960;28;19933;-60
2022/03/26 12:47:02;;;;;;;;;;;20.70;22.80;;;;;;5011034;28;19909;-60
2022/03/26 12:49:28;;;;;;;;;;;20.50;22.80;;;;;;5011122;28;19917;-63
2022/03/26 12:51:54;;;;;;;;;;;20.70;23.50;;;;;;4995644;28;19910;-64
2022/03/26 12:54:21;;;;;;;;;;;20.70;23.30;;;;;;4995921;28;19910;-60
2022/03/26 12:56:49;;;;;;;;;;;20.70;23.20;;;;;;4996207;28;19910;-64
2022/03/26 12:59:15;;;;;;;;;;;20.60;23.60;;;;;;4995383;28;20301;-63
2022/03/26 13:01:42;;;;;;;;;;;20.90;24.00;;;;;;4995525;28;19914;-64
2022/03/26 13:04:07;;;;;;;;;;;21.20;23.30;;;;;;4995161;28;19920;-63
2022/03/26 13:06:33;;;;;;;;;;;21.30;22.90;;;;;;4990713;28;19910;-62
2022/03/26 13:08:59;;;;;;;;;;;21.10;22.60;;;;;;4994563;28;19956;-62
2022/03/26 13:11:25;;;;;;;;;;;20.90;22.70;;;;;;4994557;28;19914;-63
2022/03/26 13:13:52;;;;;;;;;;;20.80;23.00;;;;;;4994039;28;19957;-65
2022/03/26 13:16:24;;;;;;;;;;;20.80;23.00;;;;;;4989373;28;20366;-64
2022/03/26 13:19:03;;;;;;;;;;;20.60;22.70;;;;;;4982572;28;20389;-63
2022/03/26 13:21:30;;;;;;;;;;;20.70;23.50;;;;;;4974729;28;19909;-65
2022/03/26 13:23:57;;;;;;;;;;;20.90;22.80;;;;;;4982240;28;20267;-65
2022/03/26 13:26:40;;;;;;;;;;;20.80;22.40;;;;;;4976746;28;19910;-64
2022/03/26 13:29:12;;;;;;;;;;;20.70;22.60;;;;;;4991318;28;19913;-65
2022/03/26 13:31:42;;;;;;;;;;;20.50;22.40;;;;;;4981358;28;19926;-70
2022/03/26 13:34:08;;;;;;;;;;;20.10;22.90;;;;;;4982422;28;20321;-63
2022/03/26 13:36:34;;;;;;;;;;;19.70;23.40;;;;;;4977907;28;19956;-63
2022/03/26 13:39:12;;;;;;;;;;;19.80;23.40;;;;;;4977019;28;20017;-65
2022/03/26 13:41:37;;;;;;;;;;;19.90;23.50;;;;;;4975218;28;19972;-65
2022/03/26 13:44:03;;;;;;;;;;;20.10;23.80;;;;;;4977976;28;20001;-71
2022/03/26 13:46:29;;;;;;;;;;;20.40;22.90;;;;;;4981353;28;19910;-67
2022/03/26 13:48:56;;;;;;;;;;;20.20;23.10;;;;;;4987287;28;19911;-62
2022/03/26 13:51:25;;;;;;;;;;;20.20;23.20;;;;;;4991052;28;19973;-62
2022/03/26 13:53:52;;;;;;;;;;;19.60;23.10;;;;;;4994091;28;19918;-65
2022/03/26 13:56:17;;;;;;;;;;;19.60;23.60;;;;;;4995309;28;19921;-66
2022/03/26 13:58:49;;;;;;;;;;;19.40;23.50;;;;;;4991567;28;19910;-64
2022/03/26 14:01:16;;;;;;;;;;;19.60;23.50;;;;;;4985587;28;19910;-60
2022/03/26 14:03:41;;;;;;;;;;;19.50;23.10;;;;;;4981229;28;19917;-63
2022/03/26 14:06:07;;;;;;;;;;;19.60;23.10;;;;;;4984284;28;19915;-60
2022/03/26 14:08:34;;;;;;;;;;;19.60;22.80;;;;;;4982236;28;19914;-67
2022/03/26 14:10:59;;;;;;;;;;;19.60;23.10;;;;;;4982845;28;19965;-60
2022/03/26 14:13:25;;;;;;;;;;;19.70;23.20;;;;;;4982188;28;19922;-66
2022/03/26 14:15:50;;;;;;;;;;;20.00;23.00;;;;;;4981575;28;19910;-64
2022/03/26 14:18:17;;;;;;;;;;;20.20;23.80;;;;;;4981640;28;19914;-60
2022/03/26 14:20:42;;;;;;;;;;;20.40;23.20;;;;;;4982477;28;19960;-63
2022/03/26 14:23:08;;;;;;;;;;;20.30;22.40;;;;;;4982581;28;19910;-62
2022/03/26 14:25:36;;;;;;;;;;;20.30;22.70;;;;;;4985180;28;19997;-61